createdAt,value
2019-05-16T00:01:21.552Z,7.93
2019-05-16T00:06:28.539Z,7.83
2019-05-16T00:11:33.825Z,8.53
2019-05-16T00:16:43.386Z,7.30
2019-05-16T00:21:52.262Z,6.60
2019-05-16T00:26:58.636Z,8.20
2019-05-16T00:32:08.566Z,7.70
2019-05-16T00:37:18.203Z,8.10
2019-05-16T00:42:22.565Z,7.63
2019-05-16T00:47:32.086Z,7.57
2019-05-16T00:52:39.121Z,7.90
2019-05-16T01:03:08.141Z,8.80
2019-05-16T01:08:18.946Z,9.40
2019-05-16T01:13:31.534Z,9.27
2019-05-16T01:18:41.637Z,8.63
2019-05-16T01:23:48.066Z,8.93
2019-05-16T01:28:57.690Z,9.53
2019-05-16T01:34:09.695Z,9.87
2019-05-16T01:39:13.672Z,10.17
2019-05-16T01:44:18.386Z,8.97
2019-05-16T01:49:28.015Z,8.93
2019-05-16T01:54:43.238Z,9.80
2019-05-16T01:59:51.008Z,9.87
2019-05-16T02:05:01.124Z,9.57
2019-05-16T02:10:09.619Z,9.00
2019-05-16T02:15:18.836Z,9.23
2019-05-16T02:20:30.170Z,9.67
2019-05-16T02:25:34.153Z,10.30
2019-05-16T02:30:43.798Z,9.87
2019-05-16T02:35:55.697Z,9.63
2019-05-16T02:41:05.357Z,10.90
2019-05-16T02:46:14.728Z,10.77
2019-05-16T02:51:25.827Z,12.70
2019-05-16T02:56:31.761Z,11.77
2019-05-16T03:01:42.331Z,12.53
2019-05-16T03:06:53.039Z,13.57
2019-05-16T03:12:01.883Z,13.63
2019-05-16T03:17:05.999Z,13.53
2019-05-16T03:22:22.104Z,13.93
2019-05-16T03:27:32.923Z,14.27
2019-05-16T03:32:45.513Z,14.17
2019-05-16T03:37:55.874Z,14.03
2019-05-16T03:43:02.157Z,14.83
2019-05-16T03:48:06.098Z,14.67
2019-05-16T03:53:11.686Z,14.80
2019-05-16T03:58:16.177Z,16.90
2019-05-16T04:03:32.098Z,16.03
2019-05-16T04:08:33.760Z,16.77
2019-05-16T04:13:40.826Z,16.00
2019-05-16T04:18:46.725Z,14.77
2019-05-16T04:23:56.223Z,16.77
2019-05-16T04:29:03.238Z,17.13
2019-05-16T04:34:07.775Z,17.30
2019-05-16T04:39:12.251Z,15.93
2019-05-16T04:44:16.308Z,16.57
2019-05-16T04:49:21.254Z,17.10
2019-05-16T04:54:25.549Z,16.17
2019-05-16T04:59:31.156Z,17.10
2019-05-16T05:04:35.395Z,16.37
2019-05-16T05:09:40.868Z,16.87
2019-05-16T05:14:45.168Z,15.97
2019-05-16T05:19:50.691Z,16.20
2019-05-16T05:24:54.863Z,15.07
2019-05-16T05:30:01.029Z,13.50
2019-05-16T05:35:05.231Z,14.50
2019-05-16T05:40:10.602Z,12.50
2019-05-16T05:45:15.082Z,12.67
2019-05-16T05:50:20.187Z,11.87
2019-05-16T05:55:24.388Z,11.17
2019-05-16T06:00:30.310Z,11.30
2019-05-16T06:05:34.658Z,11.17
2019-05-16T06:10:40.529Z,11.67
2019-05-16T06:15:44.741Z,11.53
2019-05-16T06:20:51.117Z,10.77
2019-05-16T06:25:55.664Z,11.10
2019-05-16T06:31:01.865Z,11.03
2019-05-16T06:36:05.456Z,11.63
2019-05-16T06:41:10.688Z,10.43
2019-05-16T06:46:14.876Z,9.93
2019-05-16T06:51:20.062Z,11.37
2019-05-16T06:56:24.371Z,11.67
2019-05-16T07:01:29.988Z,12.27
2019-05-16T07:06:51.770Z,14.00
2019-05-16T07:11:42.736Z,12.13
2019-05-16T07:16:49.681Z,12.63
2019-05-16T07:21:53.552Z,12.43
2019-05-16T07:27:00.211Z,13.00
2019-05-16T07:32:04.540Z,14.17
2019-05-16T07:37:10.683Z,14.40
2019-05-16T07:42:14.351Z,12.43
2019-05-16T07:47:20.265Z,12.23
2019-05-16T07:52:24.671Z,11.93
2019-05-16T07:57:30.615Z,12.30
2019-05-16T08:02:34.695Z,12.40
2019-05-16T08:07:40.634Z,11.57
2019-05-16T08:12:44.888Z,10.53
2019-05-16T08:17:51.267Z,11.83
2019-05-16T08:22:54.667Z,11.47
2019-05-16T08:28:01.189Z,10.47
2019-05-16T08:33:05.547Z,10.87
2019-05-16T08:38:13.591Z,11.27
2019-05-16T08:43:15.712Z,13.40
2019-05-16T08:48:22.890Z,11.43
2019-05-16T08:53:26.144Z,10.33
2019-05-16T08:58:33.040Z,10.33
2019-05-16T09:03:36.349Z,10.60
2019-05-16T09:08:40.667Z,11.23
2019-05-16T09:13:47.502Z,12.00
2019-05-16T09:18:51.435Z,11.17
2019-05-16T09:23:57.811Z,11.63
2019-05-16T09:29:02.526Z,10.40
2019-05-16T09:34:07.487Z,10.67
2019-05-16T09:39:11.691Z,11.10
2019-05-16T09:44:18.257Z,10.53
2019-05-16T09:49:24.848Z,10.67
2019-05-16T09:54:27.519Z,9.43
2019-05-16T09:59:31.618Z,12.10
2019-05-16T10:04:36.978Z,10.80
2019-05-16T10:13:11.571Z,11.17
2019-05-16T10:18:17.146Z,12.20
2019-05-16T10:23:22.346Z,11.77
2019-05-16T10:28:27.851Z,11.07
2019-05-16T10:33:33.482Z,12.60
2019-05-16T10:38:39.306Z,15.87
2019-05-16T10:43:47.290Z,14.20
2019-05-16T10:48:51.970Z,12.27
2019-05-16T10:54:08.845Z,12.90
2019-05-16T10:59:37.838Z,13.33
2019-05-16T11:04:24.235Z,12.20
2019-05-16T11:09:18.540Z,13.43
2019-05-16T11:14:23.764Z,11.33
2019-05-16T11:19:29.067Z,12.23
2019-05-16T11:24:37.549Z,13.50
2019-05-16T11:29:42.221Z,14.73
2019-05-16T11:34:47.916Z,13.93
2019-05-16T11:39:53.674Z,13.87
2019-05-16T11:44:59.892Z,13.70
2019-05-16T11:50:07.361Z,13.27
2019-05-16T11:55:13.060Z,12.73
2019-05-16T12:00:18.920Z,12.40
2019-05-16T12:05:26.809Z,13.23
2019-05-16T12:10:31.575Z,12.83
2019-05-16T12:15:37.263Z,13.07
2019-05-16T12:20:42.510Z,12.30
2019-05-16T12:25:47.865Z,12.27
2019-05-16T12:30:53.275Z,12.43
2019-05-16T12:35:58.692Z,12.47
2019-05-16T12:41:04.131Z,13.90
2019-05-16T12:46:09.551Z,12.67
2019-05-16T12:51:17.119Z,12.93
2019-05-16T12:56:22.305Z,12.40
2019-05-16T13:01:34.260Z,12.83
2019-05-16T13:06:37.127Z,12.47
2019-05-16T13:11:42.432Z,11.87
2019-05-16T13:16:48.105Z,13.63
2019-05-16T13:21:53.508Z,12.33
2019-05-16T13:26:59.359Z,13.70
2019-05-16T13:32:07.397Z,13.07
2019-05-16T13:37:11.823Z,13.87
2019-05-16T13:42:17.662Z,13.10
2019-05-16T13:47:23.115Z,12.73
2019-05-16T13:52:28.589Z,12.83
2019-05-16T13:57:34.035Z,12.90
2019-05-16T14:02:39.495Z,12.97
2019-05-16T14:07:47.781Z,13.40
2019-05-16T14:12:52.345Z,14.10
2019-05-16T14:17:57.567Z,12.20
2019-05-16T14:23:02.781Z,13.30
2019-05-16T14:28:08.410Z,12.60
2019-05-16T14:33:14.257Z,13.80
2019-05-16T14:38:19.766Z,13.07
2019-05-16T14:43:27.207Z,11.57
2019-05-16T14:48:32.266Z,12.53
2019-05-16T14:53:38.079Z,12.83
2019-05-16T14:58:43.465Z,12.57
2019-05-16T15:03:48.680Z,12.73
2019-05-16T15:08:56.597Z,11.63
2019-05-16T15:14:01.322Z,11.27
2019-05-16T15:19:08.149Z,11.43
2019-05-16T15:24:13.983Z,11.00
2019-05-16T15:29:19.304Z,11.20
2019-05-16T15:34:29.878Z,9.50
2019-05-16T15:39:31.750Z,9.50
2019-05-16T15:44:37.111Z,8.57
2019-05-16T15:49:42.402Z,8.03
2019-05-16T15:54:47.982Z,9.40
2019-05-16T15:59:53.359Z,8.83
2019-05-16T16:04:58.751Z,9.17
2019-05-16T16:10:06.847Z,8.43
2019-05-16T16:15:11.567Z,8.27
2019-05-16T16:20:17.121Z,7.73
2019-05-16T16:25:22.730Z,7.03
2019-05-16T16:30:28.347Z,6.03
2019-05-16T16:35:33.896Z,6.77
2019-05-16T16:40:39.430Z,6.40
2019-05-16T16:45:47.702Z,7.37
2019-05-16T16:50:51.913Z,7.27
2019-05-16T16:55:57.174Z,9.23
2019-05-16T17:01:02.533Z,8.17
2019-05-16T17:06:08.154Z,8.93
2019-05-16T17:11:13.874Z,8.70
2019-05-16T17:16:25.630Z,6.90
2019-05-16T17:21:26.197Z,7.43
2019-05-16T17:26:31.691Z,6.17
2019-05-16T17:31:37.065Z,6.30
2019-05-16T17:36:42.346Z,6.17
2019-05-16T17:41:54.415Z,6.40
2019-05-16T17:46:57.277Z,5.67
2019-05-16T17:52:01.894Z,6.03
2019-05-16T17:57:07.651Z,5.60
2019-05-16T18:02:13.050Z,5.87
2019-05-16T18:07:18.430Z,5.30
2019-05-16T18:12:23.674Z,6.43
2019-05-16T18:17:28.995Z,5.23
2019-05-16T18:22:36.203Z,5.40
2019-05-16T18:27:41.503Z,4.30
2019-05-16T18:32:46.914Z,4.10
2019-05-16T18:37:52.153Z,5.10
2019-05-16T18:42:57.834Z,4.93
2019-05-16T18:48:03.147Z,4.90
2019-05-16T18:53:08.514Z,4.97
2019-05-16T18:58:13.990Z,5.00
2019-05-16T19:03:19.710Z,4.67
2019-05-16T19:08:27.108Z,5.60
2019-05-16T19:13:32.058Z,4.33
2019-05-16T19:18:37.358Z,4.23
2019-05-16T19:23:42.661Z,4.20
2019-05-16T19:28:48.011Z,4.57
2019-05-16T19:33:53.342Z,4.00
2019-05-16T19:38:58.581Z,5.27
2019-05-16T19:44:06.697Z,5.17
2019-05-16T19:49:12.393Z,5.47
2019-05-16T19:54:17.641Z,5.17
2019-05-16T19:59:22.994Z,4.80
2019-05-16T20:04:28.356Z,4.57
2019-05-16T20:09:33.656Z,4.63
2019-05-16T20:14:39.055Z,4.57
2019-05-16T20:19:44.493Z,4.93
2019-05-16T20:24:49.875Z,4.80
2019-05-16T20:29:56.437Z,4.57
2019-05-16T20:35:02.463Z,5.07
2019-05-16T20:40:12.080Z,5.13
2019-05-16T20:45:16.923Z,4.77
2019-05-16T20:50:22.559Z,6.57
2019-05-16T20:55:27.911Z,5.30
2019-05-16T21:00:33.242Z,5.53
2019-05-16T21:05:38.662Z,5.53
2019-05-16T21:10:46.283Z,6.37
2019-05-16T21:15:51.110Z,6.27
2019-05-16T21:20:57.436Z,5.97
2019-05-16T21:26:02.908Z,5.07
2019-05-16T21:31:08.102Z,6.30
2019-05-16T21:36:13.415Z,5.80
2019-05-16T21:41:18.830Z,6.07
2019-05-16T21:46:27.195Z,6.50
2019-05-16T21:51:32.161Z,7.20
2019-05-16T21:56:37.613Z,6.27
2019-05-16T22:01:43.334Z,6.13
2019-05-16T22:06:48.682Z,7.07
2019-05-16T22:11:53.910Z,6.37
2019-05-16T22:16:59.431Z,6.27
2019-05-16T22:22:07.293Z,6.40
2019-05-16T22:27:12.074Z,5.73
2019-05-16T22:32:17.502Z,6.07
2019-05-16T22:37:22.761Z,5.97
2019-05-16T22:42:28.151Z,6.37
2019-05-16T22:47:37.173Z,5.50
2019-05-16T22:52:41.324Z,5.30
2019-05-16T22:57:47.373Z,4.80
2019-05-16T23:02:52.910Z,4.87
2019-05-16T23:08:05.682Z,5.80
2019-05-16T23:13:06.765Z,5.27
2019-05-16T23:18:12.522Z,5.43
2019-05-16T23:23:17.835Z,4.90
2019-05-16T23:28:23.114Z,4.87
2019-05-16T23:33:28.511Z,5.77
2019-05-16T23:38:34.072Z,5.13
2019-05-16T23:43:39.350Z,6.97
2019-05-16T23:48:47.194Z,9.27
2019-05-16T23:53:52.633Z,8.23
2019-05-16T23:58:57.879Z,6.80
